createdAt,value
2022-12-14T00:01:56.145Z,7.37
2022-12-14T00:04:23.730Z,6.17
2022-12-14T00:06:51.362Z,5.80
2022-12-14T00:09:18.896Z,8.33
2022-12-14T00:11:46.426Z,6.43
2022-12-14T00:16:58.751Z,7.03
2022-12-14T00:19:26.346Z,7.77
2022-12-14T00:21:56.963Z,6.57
2022-12-14T00:24:24.410Z,9.07
2022-12-14T00:26:51.854Z,7.63
2022-12-14T00:29:19.349Z,7.03
2022-12-14T00:31:48.627Z,7.60
2022-12-14T00:34:16.657Z,7.70
2022-12-14T00:36:45.554Z,9.30
2022-12-14T00:39:13.075Z,8.30
2022-12-14T00:41:40.505Z,7.83
2022-12-14T00:44:08.009Z,9.83
2022-12-14T00:46:35.533Z,8.43
2022-12-14T00:49:02.961Z,7.70
2022-12-14T00:51:30.394Z,8.83
2022-12-14T00:53:57.803Z,9.13
2022-12-14T00:56:25.328Z,8.93
2022-12-14T00:58:54.422Z,9.43
2022-12-14T01:01:22.430Z,9.67
2022-12-14T01:03:50.359Z,10.50
2022-12-14T01:06:21.640Z,8.57
2022-12-14T01:08:49.964Z,8.03
2022-12-14T01:11:17.946Z,9.57
2022-12-14T01:13:49.317Z,8.63
2022-12-14T01:16:17.437Z,8.97
2022-12-14T01:18:45.436Z,8.53
2022-12-14T01:21:17.713Z,10.87
2022-12-14T01:23:46.751Z,9.67
2022-12-14T01:26:17.351Z,8.37
2022-12-14T01:28:46.878Z,8.53
2022-12-14T01:31:19.617Z,17.07
2022-12-14T01:33:48.872Z,8.07
2022-12-14T01:36:25.302Z,8.23
2022-12-14T01:38:56.808Z,8.07
2022-12-14T01:41:28.034Z,7.57
2022-12-14T01:43:57.763Z,7.53
2022-12-14T01:47:07.380Z,8.63
2022-12-14T01:49:46.019Z,9.33
2022-12-14T01:52:43.790Z,13.10
2022-12-14T01:55:21.810Z,10.53
2022-12-14T01:58:03.310Z,7.77
2022-12-14T02:00:31.623Z,8.77
2022-12-14T02:03:07.755Z,8.57
2022-12-14T02:05:39.630Z,8.17
2022-12-14T02:08:08.496Z,7.43
2022-12-14T02:10:36.687Z,7.97
2022-12-14T02:13:20.077Z,9.10
2022-12-14T02:15:48.695Z,8.90
2022-12-14T02:18:23.203Z,9.27
2022-12-14T02:21:46.223Z,6.73
2022-12-14T02:24:46.731Z,7.47
2022-12-14T02:27:38.409Z,7.77
2022-12-14T02:30:15.072Z,9.57
2022-12-14T02:32:49.004Z,8.57
2022-12-14T02:36:06.425Z,8.40
2022-12-14T02:38:53.234Z,9.60
2022-12-14T02:41:41.575Z,9.57
2022-12-14T02:44:37.889Z,10.10
2022-12-14T02:47:20.847Z,9.17
2022-12-14T02:50:49.163Z,12.30
2022-12-14T02:54:11.088Z,9.47
2022-12-14T02:56:49.148Z,10.37
2022-12-14T02:59:18.747Z,9.23
2022-12-14T03:01:48.806Z,11.13
2022-12-14T03:04:17.904Z,8.13
2022-12-14T03:07:00.849Z,8.73
2022-12-14T03:09:30.687Z,8.23
2022-12-14T03:12:09.364Z,10.23
2022-12-14T03:26:34.868Z,10.47
2022-12-14T03:29:22.044Z,7.83
2022-12-14T03:31:56.215Z,7.70
2022-12-14T03:34:36.453Z,8.73
2022-12-14T03:37:14.916Z,11.10
2022-12-14T03:39:44.304Z,8.03
2022-12-14T03:42:26.022Z,7.47
2022-12-14T03:45:22.416Z,8.87
2022-12-14T03:48:10.707Z,10.13
2022-12-14T03:51:13.110Z,9.87
2022-12-14T03:53:45.890Z,9.13
2022-12-14T03:56:35.055Z,10.93
2022-12-14T03:59:20.732Z,10.53
2022-12-14T04:02:04.753Z,13.93
2022-12-14T04:04:52.886Z,10.73
2022-12-14T04:08:20.792Z,10.17
2022-12-14T04:11:10.946Z,8.53
2022-12-14T04:14:16.507Z,10.67
2022-12-14T04:17:06.453Z,10.07
2022-12-14T04:20:14.269Z,9.87
2022-12-14T04:22:50.144Z,8.80
2022-12-14T04:25:44.737Z,10.37
2022-12-14T04:28:38.405Z,12.50
2022-12-14T04:31:12.345Z,10.17
2022-12-14T04:33:46.921Z,13.00
2022-12-14T04:36:28.411Z,12.90
2022-12-14T04:39:07.336Z,16.07
2022-12-14T04:41:44.171Z,15.83
2022-12-14T04:44:24.950Z,18.03
2022-12-14T04:46:54.908Z,13.63
2022-12-14T04:49:51.324Z,20.97
2022-12-14T04:52:34.375Z,25.70
2022-12-14T04:55:26.416Z,39.00
2022-12-14T04:58:12.566Z,31.83
2022-12-14T05:01:22.814Z,32.87
2022-12-14T05:04:15.596Z,29.33
2022-12-14T05:06:52.157Z,22.60
2022-12-14T05:09:50.379Z,23.07
2022-12-14T05:12:42.652Z,34.90
2022-12-14T05:15:23.732Z,19.60
2022-12-14T05:17:52.958Z,16.63
2022-12-14T05:20:27.389Z,22.03
2022-12-14T05:22:55.481Z,17.00
2022-12-14T05:25:23.346Z,15.53
2022-12-14T05:27:51.265Z,16.33
2022-12-14T05:30:19.301Z,12.13
2022-12-14T05:32:47.661Z,16.40
2022-12-14T05:35:16.532Z,19.57
2022-12-14T05:37:44.538Z,17.23
2022-12-14T05:40:13.235Z,18.20
2022-12-14T05:42:44.669Z,14.93
2022-12-14T05:45:16.094Z,15.63
2022-12-14T05:47:44.054Z,24.27
2022-12-14T05:50:12.641Z,13.80
2022-12-14T05:52:40.676Z,14.30
2022-12-14T05:55:09.913Z,13.43
2022-12-14T05:57:37.967Z,16.67
2022-12-14T06:00:07.138Z,14.70
2022-12-14T06:02:35.690Z,19.70
2022-12-14T06:05:04.235Z,26.33
2022-12-14T06:07:31.929Z,19.93
2022-12-14T06:10:00.090Z,16.30
2022-12-14T06:12:28.364Z,15.03
2022-12-14T06:14:56.613Z,38.23
2022-12-14T06:17:24.570Z,24.73
2022-12-14T06:19:52.979Z,30.03
2022-12-14T06:22:21.894Z,36.73
2022-12-14T06:24:50.051Z,27.00
2022-12-14T06:27:18.657Z,27.13
2022-12-14T06:29:46.900Z,33.17
2022-12-14T06:32:15.081Z,34.33
2022-12-14T06:34:44.521Z,33.90
2022-12-14T06:37:13.314Z,27.10
2022-12-14T06:39:42.144Z,59.90
2022-12-14T06:42:11.868Z,53.93
2022-12-14T06:44:40.799Z,69.53
2022-12-14T06:47:09.194Z,73.63
2022-12-14T06:49:37.567Z,64.77
2022-12-14T06:52:06.170Z,34.50
2022-12-14T06:54:34.433Z,25.70
2022-12-14T06:57:02.829Z,22.13
2022-12-14T06:59:31.051Z,28.63
2022-12-14T07:01:59.685Z,18.93
2022-12-14T07:04:28.253Z,18.87
2022-12-14T07:06:56.538Z,24.27
2022-12-14T07:09:24.740Z,24.97
2022-12-14T07:11:53.461Z,14.70
2022-12-14T07:14:21.614Z,19.03
2022-12-14T07:16:49.744Z,16.37
2022-12-14T07:19:19.210Z,24.63
2022-12-14T07:21:47.334Z,18.60
2022-12-14T07:24:16.067Z,34.40
2022-12-14T07:26:44.470Z,23.90
2022-12-14T07:29:14.907Z,25.60
2022-12-14T07:31:44.486Z,22.57
2022-12-14T07:34:18.316Z,19.30
2022-12-14T07:36:49.157Z,15.03
2022-12-14T07:39:17.639Z,17.50
2022-12-14T07:41:47.994Z,13.73
2022-12-14T07:44:21.583Z,12.67
2022-12-14T07:46:50.212Z,10.23
2022-12-14T07:49:18.009Z,13.03
2022-12-14T07:51:46.839Z,8.97
2022-12-14T07:54:15.574Z,14.07
2022-12-14T07:56:45.041Z,11.90
2022-12-14T07:59:18.778Z,8.57
2022-12-14T08:01:47.753Z,12.00
2022-12-14T08:04:19.499Z,6.33
2022-12-14T08:06:49.467Z,5.43
2022-12-14T08:09:19.319Z,5.10
2022-12-14T08:11:47.507Z,6.47
2022-12-14T08:14:19.008Z,7.17
2022-12-14T08:16:48.899Z,6.77
2022-12-14T08:19:18.105Z,7.50
2022-12-14T08:21:46.175Z,7.10
2022-12-14T08:24:14.587Z,8.97
2022-12-14T08:26:42.160Z,16.27
2022-12-14T08:29:15.437Z,10.67
2022-12-14T08:31:42.963Z,8.60
2022-12-14T08:34:10.497Z,8.43
2022-12-14T08:36:37.999Z,8.20
2022-12-14T08:39:10.313Z,10.33
2022-12-14T08:41:37.888Z,7.50
2022-12-14T08:44:06.289Z,22.47
2022-12-14T08:46:37.581Z,7.13
2022-12-14T08:49:05.341Z,6.43
2022-12-14T08:51:32.949Z,7.80
2022-12-14T08:54:00.420Z,7.03
2022-12-14T08:56:29.201Z,5.97
2022-12-14T08:58:57.707Z,7.37
2022-12-14T09:01:34.004Z,9.23
2022-12-14T09:04:09.119Z,9.73
2022-12-14T09:06:39.701Z,11.27
2022-12-14T09:09:15.656Z,9.60
2022-12-14T09:11:45.132Z,6.97
2022-12-14T09:14:13.078Z,7.63
2022-12-14T09:16:40.994Z,11.70
2022-12-14T09:19:08.620Z,7.13
2022-12-14T09:21:36.624Z,7.57
2022-12-14T09:24:05.354Z,8.70
2022-12-14T09:26:33.877Z,17.63
2022-12-14T09:29:01.463Z,7.43
2022-12-14T09:31:29.254Z,10.40
2022-12-14T09:33:57.022Z,6.37
2022-12-14T09:36:28.104Z,8.53
2022-12-14T09:38:57.709Z,9.00
2022-12-14T09:41:57.706Z,8.27
2022-12-14T09:44:43.962Z,6.77
2022-12-14T09:47:33.903Z,7.40
2022-12-14T09:50:16.057Z,6.10
2022-12-14T09:52:51.745Z,6.93
2022-12-14T09:55:43.470Z,6.30
2022-12-14T09:58:23.754Z,6.20
2022-12-14T10:01:24.869Z,7.33
2022-12-14T10:04:35.804Z,10.67
2022-12-14T10:07:57.085Z,6.47
2022-12-14T10:10:32.477Z,7.07
2022-12-14T10:13:42.707Z,6.80
2022-12-14T10:16:32.345Z,7.63
2022-12-14T10:19:41.281Z,7.80
2022-12-14T10:22:20.415Z,14.60
2022-12-14T10:25:17.716Z,9.60
2022-12-14T10:28:20.953Z,8.63
2022-12-14T10:30:51.265Z,5.87
2022-12-14T10:33:30.991Z,10.20
2022-12-14T10:36:21.069Z,6.77
2022-12-14T10:38:59.040Z,10.90
2022-12-14T10:41:37.425Z,5.93
2022-12-14T10:44:21.734Z,5.47
2022-12-14T10:47:05.965Z,5.50
2022-12-14T10:49:57.886Z,5.80
2022-12-14T10:52:36.116Z,7.57
2022-12-14T10:55:15.431Z,5.57
2022-12-14T10:57:42.974Z,6.50
2022-12-14T11:00:23.052Z,5.77
2022-12-14T11:02:56.126Z,8.37
2022-12-14T11:06:02.922Z,4.77
2022-12-14T11:08:47.865Z,5.03
2022-12-14T11:11:23.822Z,4.87
2022-12-14T11:14:07.837Z,4.83
2022-12-14T11:16:41.855Z,4.30
2022-12-14T11:19:19.365Z,3.97
2022-12-14T11:21:50.441Z,5.80
2022-12-14T11:24:27.556Z,4.27
2022-12-14T11:27:01.424Z,5.37
2022-12-14T11:29:39.435Z,4.87
2022-12-14T11:32:17.501Z,4.50
2022-12-14T11:34:44.952Z,5.03
2022-12-14T11:37:28.393Z,5.83
2022-12-14T11:40:01.190Z,5.27
2022-12-14T11:42:30.932Z,5.97
2022-12-14T11:45:26.122Z,4.30
2022-12-14T11:48:20.298Z,5.53
2022-12-14T11:50:50.385Z,10.57
2022-12-14T11:53:21.381Z,3.50
2022-12-14T11:56:14.985Z,5.13
2022-12-14T11:58:53.512Z,4.13
2022-12-14T12:01:26.324Z,8.70
2022-12-14T12:03:58.523Z,9.10
2022-12-14T12:06:29.472Z,8.63
2022-12-14T12:09:01.053Z,6.97
2022-12-14T12:11:32.867Z,9.73
2022-12-14T12:14:20.250Z,5.73
2022-12-14T12:16:48.494Z,10.87
2022-12-14T12:19:27.186Z,10.50
2022-12-14T12:21:56.500Z,11.83
2022-12-14T12:24:55.080Z,5.20
2022-12-14T12:27:27.488Z,5.00
2022-12-14T12:30:04.782Z,6.00
2022-12-14T12:32:37.728Z,5.33
2022-12-14T12:35:16.335Z,6.10
2022-12-14T12:37:50.951Z,6.10
2022-12-14T12:40:31.328Z,5.13
2022-12-14T12:43:38.390Z,5.90
2022-12-14T12:46:18.700Z,10.97
2022-12-14T12:48:55.214Z,5.57
2022-12-14T12:51:50.450Z,16.50
2022-12-14T12:54:40.844Z,7.03
2022-12-14T12:57:13.006Z,4.70
2022-12-14T12:59:51.279Z,5.03
2022-12-14T13:02:38.585Z,6.10
2022-12-14T13:05:45.147Z,4.70
2022-12-14T13:08:26.614Z,7.60
2022-12-14T13:11:25.154Z,3.70
2022-12-14T13:14:28.201Z,4.00
2022-12-14T13:16:57.043Z,7.87
2022-12-14T13:19:54.635Z,4.43
2022-12-14T13:22:34.535Z,6.77
2022-12-14T13:25:16.351Z,4.73
2022-12-14T13:28:16.059Z,3.90
2022-12-14T13:31:13.817Z,4.17
2022-12-14T13:33:55.069Z,4.43
2022-12-14T13:37:18.375Z,5.77
2022-12-14T13:40:13.640Z,5.70
2022-12-14T13:43:05.816Z,6.77
2022-12-14T13:45:44.947Z,4.97
2022-12-14T13:48:31.955Z,5.67
2022-12-14T13:51:23.499Z,6.10
2022-12-14T13:54:06.052Z,12.73
2022-12-14T13:56:38.437Z,8.40
2022-12-14T13:59:33.200Z,6.60
2022-12-14T14:02:03.314Z,6.67
2022-12-14T14:04:35.607Z,5.97
2022-12-14T14:07:25.033Z,7.13
2022-12-14T14:10:04.711Z,5.70
2022-12-14T14:12:39.456Z,5.57
2022-12-14T14:15:25.806Z,4.00
2022-12-14T14:17:55.913Z,6.37
2022-12-14T14:20:46.585Z,4.80
2022-12-14T14:23:16.829Z,8.93
2022-12-14T14:26:11.491Z,5.33
2022-12-14T14:28:39.371Z,8.20
2022-12-14T14:31:09.413Z,7.33
2022-12-14T14:33:48.878Z,6.93
2022-12-14T14:36:36.328Z,7.50
2022-12-14T14:39:55.438Z,9.40
2022-12-14T14:42:24.452Z,12.17
2022-12-14T14:45:01.774Z,12.00
2022-12-14T14:47:41.480Z,10.67
2022-12-14T14:50:27.061Z,8.13
2022-12-14T14:53:28.495Z,10.43
2022-12-14T14:56:05.985Z,8.23
2022-12-14T14:58:39.477Z,10.43
2022-12-14T15:01:25.339Z,7.97
2022-12-14T15:04:02.915Z,15.00
2022-12-14T15:06:39.814Z,8.93
2022-12-14T15:09:10.343Z,10.53
2022-12-14T15:11:52.298Z,10.03
2022-12-14T15:14:48.330Z,12.20
2022-12-14T15:17:22.990Z,16.77
2022-12-14T15:19:54.829Z,15.10
2022-12-14T15:22:42.169Z,102.03
2022-12-14T15:25:28.450Z,50.40
2022-12-14T15:28:06.076Z,51.80
2022-12-14T15:30:34.697Z,42.33
2022-12-14T15:33:08.073Z,40.73
2022-12-14T15:35:39.722Z,36.97
2022-12-14T15:38:24.851Z,77.07
2022-12-14T15:41:03.472Z,44.17
2022-12-14T15:43:31.996Z,46.30
2022-12-14T15:46:04.804Z,59.40
2022-12-14T15:48:35.091Z,53.20
2022-12-14T15:51:10.339Z,50.07
2022-12-14T15:53:50.886Z,42.87
2022-12-14T15:56:37.983Z,31.20
2022-12-14T15:59:24.525Z,45.10
2022-12-14T16:02:27.271Z,49.50
2022-12-14T16:04:57.214Z,44.73
2022-12-14T16:07:38.483Z,64.77
2022-12-14T16:10:25.941Z,41.70
2022-12-14T16:13:02.676Z,37.10
2022-12-14T16:15:31.866Z,42.23
2022-12-14T16:18:03.411Z,40.87
2022-12-14T16:20:37.811Z,40.40
2022-12-14T16:23:14.502Z,37.93
2022-12-14T16:26:16.815Z,35.23
2022-12-14T16:28:44.367Z,44.60
2022-12-14T16:31:25.541Z,47.50
2022-12-14T16:34:19.166Z,52.20
2022-12-14T16:39:49.927Z,37.77
2022-12-14T16:42:26.406Z,36.30
2022-12-14T16:44:55.719Z,39.63
2022-12-14T16:48:00.208Z,36.60
2022-12-14T16:50:54.989Z,51.53
2022-12-14T16:53:34.166Z,61.00
2022-12-14T16:56:06.554Z,97.40
2022-12-14T16:58:40.867Z,77.60
2022-12-14T17:01:11.176Z,107.67
2022-12-14T17:03:40.177Z,111.60
2022-12-14T17:06:16.450Z,71.27
2022-12-14T17:08:45.388Z,65.00
2022-12-14T17:11:14.528Z,72.23
2022-12-14T17:13:42.912Z,52.20
2022-12-14T17:16:21.013Z,58.27
2022-12-14T17:18:49.671Z,46.90
2022-12-14T17:21:28.796Z,63.07
2022-12-14T17:23:57.530Z,39.80
2022-12-14T17:26:30.850Z,49.90
2022-12-14T17:28:58.698Z,46.33
2022-12-14T17:31:29.595Z,48.17
2022-12-14T17:33:58.315Z,37.33
2022-12-14T17:36:25.874Z,37.30
2022-12-14T17:38:53.339Z,56.93
2022-12-14T17:41:26.249Z,53.80
2022-12-14T17:43:57.932Z,54.23
2022-12-14T17:46:27.031Z,35.27
2022-12-14T17:48:54.628Z,39.07
2022-12-14T17:51:27.521Z,35.23
2022-12-14T17:54:28.806Z,33.20
2022-12-14T17:57:15.917Z,25.87
2022-12-14T17:59:47.798Z,21.30
2022-12-14T18:02:36.118Z,29.50
2022-12-14T18:05:04.837Z,36.13
2022-12-14T18:07:32.340Z,54.30
2022-12-14T18:09:59.855Z,35.43
2022-12-14T18:12:27.433Z,37.43
2022-12-14T18:14:55.400Z,38.57
2022-12-14T18:17:25.082Z,34.50
2022-12-14T18:19:52.599Z,40.70
2022-12-14T18:22:21.363Z,72.43
2022-12-14T18:24:49.394Z,65.47
2022-12-14T18:27:17.205Z,60.20
2022-12-14T18:29:44.846Z,41.73
2022-12-14T18:32:15.505Z,44.30
2022-12-14T18:34:43.156Z,38.17
2022-12-14T18:37:11.323Z,22.57
2022-12-14T18:39:39.253Z,22.57
2022-12-14T18:42:07.718Z,23.57
2022-12-14T18:44:35.949Z,31.77
2022-12-14T18:47:33.199Z,32.60
2022-12-14T18:49:53.260Z,37.20
2022-12-14T18:52:20.972Z,73.73
2022-12-14T18:54:54.468Z,47.17
2022-12-14T18:57:24.458Z,39.27
2022-12-14T18:59:55.758Z,58.07
2022-12-14T19:02:26.909Z,45.23
2022-12-14T19:04:56.369Z,237.50
2022-12-14T19:07:24.429Z,83.83
2022-12-14T19:09:52.567Z,46.47
2022-12-14T19:12:23.267Z,33.40
2022-12-14T19:14:57.029Z,34.83
2022-12-14T19:17:24.851Z,38.23
2022-12-14T19:19:53.080Z,33.83
2022-12-14T19:22:22.377Z,40.83
2022-12-14T19:24:52.599Z,38.53
2022-12-14T19:27:43.919Z,87.53
2022-12-14T19:30:14.210Z,93.40
2022-12-14T19:32:42.194Z,36.60
2022-12-14T19:35:11.460Z,35.80
2022-12-14T19:37:39.139Z,34.53
2022-12-14T19:40:13.341Z,32.33
2022-12-14T19:42:41.566Z,31.17
2022-12-14T19:45:11.128Z,32.60
2022-12-14T19:47:38.880Z,29.83
2022-12-14T19:50:08.070Z,30.37
2022-12-14T19:52:35.933Z,36.23
2022-12-14T19:55:04.728Z,38.27
2022-12-14T19:57:35.381Z,39.93
2022-12-14T20:00:03.218Z,37.93
2022-12-14T20:02:38.493Z,35.77
2022-12-14T20:05:08.675Z,43.73
2022-12-14T20:07:41.980Z,46.47
2022-12-14T20:10:12.267Z,43.40
2022-12-14T20:12:40.071Z,43.10
2022-12-14T20:15:09.091Z,56.03
2022-12-14T20:17:39.097Z,60.53
2022-12-14T20:20:07.717Z,61.97
2022-12-14T20:22:35.401Z,51.93
2022-12-14T20:25:03.508Z,45.07
2022-12-14T20:27:33.786Z,39.30
2022-12-14T20:30:09.960Z,44.07
2022-12-14T20:32:41.464Z,40.47
2022-12-14T20:35:12.180Z,43.83
2022-12-14T20:37:45.296Z,37.47
2022-12-14T20:40:39.496Z,35.40
2022-12-14T20:43:12.566Z,39.27
2022-12-14T20:45:44.432Z,34.37
2022-12-14T20:48:18.392Z,32.27
2022-12-14T20:50:50.521Z,28.07
2022-12-14T20:53:22.942Z,26.53
2022-12-14T20:55:51.954Z,32.63
2022-12-14T20:58:24.676Z,27.80
2022-12-14T21:00:53.585Z,20.80
2022-12-14T21:03:24.080Z,21.63
2022-12-14T21:05:53.958Z,20.50
2022-12-14T21:08:21.919Z,21.60
2022-12-14T21:10:49.440Z,23.17
2022-12-14T21:13:17.000Z,36.60
2022-12-14T21:15:45.475Z,48.30
2022-12-14T21:18:12.979Z,41.23
2022-12-14T21:20:40.458Z,34.43
2022-12-14T21:23:07.972Z,26.47
2022-12-14T21:25:35.466Z,37.03
2022-12-14T21:28:03.071Z,39.00
2022-12-14T21:30:30.508Z,24.83
2022-12-14T21:32:58.743Z,23.37
2022-12-14T21:35:26.151Z,30.67
2022-12-14T21:37:55.037Z,34.27
2022-12-14T21:40:40.828Z,29.37
2022-12-14T21:43:08.570Z,27.27
2022-12-14T21:45:36.572Z,22.57
2022-12-14T21:48:04.276Z,26.83
2022-12-14T21:50:32.132Z,32.90
2022-12-14T21:53:01.824Z,35.27
2022-12-14T21:55:29.287Z,39.30
2022-12-14T21:58:16.832Z,35.97
2022-12-14T22:00:47.112Z,39.00
2022-12-14T22:03:14.992Z,31.60
2022-12-14T22:05:43.470Z,29.70
2022-12-14T22:08:10.925Z,21.93
2022-12-14T22:10:38.409Z,23.73
2022-12-14T22:13:06.028Z,22.97
2022-12-14T22:15:33.481Z,24.67
2022-12-14T22:18:01.030Z,29.47
2022-12-14T22:20:28.431Z,30.40
2022-12-14T22:23:00.099Z,32.03
2022-12-14T22:25:27.710Z,27.37
2022-12-14T22:27:55.166Z,27.10
2022-12-14T22:30:27.130Z,23.00
2022-12-14T22:32:58.281Z,25.57
2022-12-14T22:35:25.858Z,22.57
2022-12-14T22:37:53.350Z,22.77
2022-12-14T22:40:21.982Z,23.13
2022-12-14T22:42:49.454Z,22.23
2022-12-14T22:45:17.127Z,23.97
2022-12-14T22:47:44.606Z,25.77
2022-12-14T22:50:12.262Z,21.50
2022-12-14T22:52:40.407Z,23.17
2022-12-14T22:55:10.954Z,25.30
2022-12-14T22:57:43.166Z,26.30
2022-12-14T23:00:17.131Z,20.90
2022-12-14T23:02:48.080Z,21.77
2022-12-14T23:05:18.026Z,24.03
2022-12-14T23:07:45.813Z,23.07
2022-12-14T23:10:31.759Z,26.20
2022-12-14T23:13:17.695Z,26.43
2022-12-14T23:16:04.019Z,24.50
2022-12-14T23:18:50.219Z,21.37
2022-12-14T23:21:36.226Z,23.00
2022-12-14T23:24:22.647Z,21.80
2022-12-14T23:27:09.947Z,27.93
2022-12-14T23:29:56.450Z,25.30
2022-12-14T23:32:42.767Z,20.67
2022-12-14T23:35:28.535Z,23.70
2022-12-14T23:38:14.739Z,24.37
2022-12-14T23:41:00.858Z,22.97
2022-12-14T23:43:46.733Z,22.40
2022-12-14T23:46:33.161Z,22.93
2022-12-14T23:49:19.406Z,24.10
2022-12-14T23:52:08.246Z,21.90
2022-12-14T23:54:54.137Z,22.73
2022-12-14T23:57:40.358Z,22.00
